Time;durP1;ratioP1;P1;durP2;ratioP2;P2;SDS_P1;SDS_P2;PMS_P1;PMS_P2;Temp;Humidity;BMP_temperature;BMP_pressure;BME280_temperature;BME280_humidity;BME280_pressure;Samples;Min_cycle;Max_cycle;Signal;HPM_P1;HPM_P2
2022/08/14 00:00:30;;;;;;;2.80;2.60;;;;;27.20;100200.00;;;;2080583;28;20225;-53
2022/08/14 00:01:30;;;;;;;3.10;2.80;;;;;27.20;100205.00;;;;2086797;28;20213;-53
2022/08/14 00:02:31;;;;;;;3.13;2.93;;;;;27.20;100198.00;;;;2086888;28;20213;-53
2022/08/14 00:03:31;;;;;;;3.00;2.70;;;;;27.20;100194.00;;;;2086790;28;20247;-53
2022/08/14 00:04:32;;;;;;;3.60;3.30;;;;;27.20;100193.00;;;;2086565;28;20217;-53
2022/08/14 00:05:32;;;;;;;2.40;2.30;;;;;27.20;100192.00;;;;2079720;28;20208;-53
2022/08/14 00:06:32;;;;;;;3.00;2.80;;;;;27.20;100185.00;;;;2086673;28;20451;-53
2022/08/14 00:07:34;;;;;;;3.30;3.00;;;;;27.20;100193.00;;;;2084927;28;20209;-53
2022/08/14 00:08:34;;;;;;;3.03;2.83;;;;;27.20;100192.00;;;;2085012;28;20221;-53
2022/08/14 00:09:35;;;;;;;3.40;2.97;;;;;27.20;100194.00;;;;2078573;28;20821;-53
2022/08/14 00:10:35;;;;;;;3.07;2.87;;;;;27.20;100217.00;;;;2078298;28;20217;-53
2022/08/14 00:11:36;;;;;;;3.27;3.07;;;;;27.20;100183.00;;;;2082823;28;20217;-52
2022/08/14 00:12:39;;;;;;;2.90;2.70;;;;;27.20;100187.00;;;;2085126;28;20712;-52
2022/08/14 00:13:39;;;;;;;3.10;2.90;;;;;27.20;100188.00;;;;2086470;28;20451;-54
2022/08/14 00:14:39;;;;;;;3.30;3.10;;;;;27.20;100175.00;;;;2086815;28;20485;-53
2022/08/14 00:15:41;;;;;;;3.17;2.97;;;;;27.20;100181.00;;;;2087000;28;20228;-53
2022/08/14 00:16:42;;;;;;;2.87;2.67;;;;;27.20;100182.00;;;;2086825;28;20708;-53
2022/08/14 00:17:43;;;;;;;3.37;3.17;;;;;27.20;100175.00;;;;2085644;28;20485;-53
2022/08/14 00:18:43;;;;;;;2.97;2.77;;;;;27.20;100181.00;;;;2086194;28;20220;-53
2022/08/14 00:19:43;;;;;;;3.20;3.00;;;;;27.20;100176.00;;;;2086400;28;20434;-53
2022/08/14 00:20:44;;;;;;;3.07;2.87;;;;;27.20;100177.00;;;;2084899;28;20209;-53
2022/08/14 00:21:44;;;;;;;3.17;2.97;;;;;27.20;100179.00;;;;2086627;28;20217;-52
2022/08/14 00:22:44;;;;;;;3.23;3.03;;;;;27.20;100179.00;;;;2086324;28;20239;-53
2022/08/14 00:23:45;;;;;;;3.00;2.80;;;;;27.20;100171.00;;;;2086673;28;20261;-54
2022/08/14 00:24:45;;;;;;;3.00;2.80;;;;;27.20;100168.00;;;;2086642;28;20216;-53
2022/08/14 00:25:47;;;;;;;2.97;2.77;;;;;27.20;100172.00;;;;2080710;28;20209;-53
2022/08/14 00:26:47;;;;;;;3.90;3.60;;;;;27.20;100171.00;;;;2079728;28;20206;-53
2022/08/14 00:27:48;;;;;;;3.20;3.00;;;;;27.20;100176.00;;;;2079136;28;20848;-53
2022/08/14 00:28:49;;;;;;;3.50;3.30;;;;;27.20;100175.00;;;;2080213;28;20671;-52
2022/08/14 00:29:49;;;;;;;2.93;2.73;;;;;27.20;100174.00;;;;2079746;28;20702;-53
2022/08/14 00:30:50;;;;;;;3.27;3.07;;;;;27.20;100176.00;;;;2080320;28;20437;-53
2022/08/14 00:31:50;;;;;;;3.47;3.27;;;;;27.20;100167.00;;;;2079886;28;20205;-52
2022/08/14 00:32:50;;;;;;;3.37;3.17;;;;;27.20;100163.00;;;;2079605;28;20372;-53
2022/08/14 00:33:51;;;;;;;3.43;3.13;;;;;27.20;100170.00;;;;2080000;28;20216;-53
2022/08/14 00:34:51;;;;;;;3.43;3.23;;;;;27.20;100165.00;;;;2080068;28;20279;-53
2022/08/14 00:35:52;;;;;;;3.40;3.17;;;;;27.20;100156.00;;;;2080115;28;20218;-52
2022/08/14 00:36:52;;;;;;;3.40;3.20;;;;;27.20;100168.00;;;;2080203;28;20213;-53
2022/08/14 00:37:52;;;;;;;3.00;2.80;;;;;27.20;100215.00;;;;2078962;28;20955;-53
2022/08/14 00:38:53;;;;;;;3.30;3.10;;;;;27.20;100163.00;;;;2080071;28;20748;-53
2022/08/14 00:39:53;;;;;;;3.20;3.00;;;;;27.20;100160.00;;;;2078745;28;20205;-53
2022/08/14 00:40:53;;;;;;;3.67;3.33;;;;;27.20;100157.00;;;;2080005;28;20201;-53
2022/08/14 00:41:54;;;;;;;3.80;3.50;;;;;27.20;100162.00;;;;2079917;28;20232;-53
2022/08/14 00:42:54;;;;;;;3.33;3.13;;;;;27.10;100156.00;;;;2079942;28;20217;-53
2022/08/14 00:43:54;;;;;;;3.50;3.20;;;;;27.10;100152.00;;;;2079948;28;20215;-53
2022/08/14 00:44:55;;;;;;;3.80;3.50;;;;;27.10;100153.00;;;;2080287;28;20690;-53
2022/08/14 00:45:55;;;;;;;4.00;3.70;;;;;27.20;100153.00;;;;2087285;28;20802;-53
2022/08/14 00:46:55;;;;;;;4.17;3.87;;;;;27.20;100151.00;;;;2087579;28;20209;-53
2022/08/14 00:47:57;;;;;;;3.30;3.00;;;;;27.10;100151.00;;;;2086882;28;20250;-52
2022/08/14 00:48:57;;;;;;;3.10;2.80;;;;;27.20;100148.00;;;;2087991;28;20225;-53
2022/08/14 00:49:57;;;;;;;3.17;2.97;;;;;27.10;100146.00;;;;2087795;28;20440;-52
2022/08/14 00:50:58;;;;;;;3.40;3.20;;;;;27.20;100147.00;;;;2088280;28;20212;-53
2022/08/14 00:51:59;;;;;;;3.70;3.40;;;;;27.10;100143.00;;;;2088008;28;20235;-52
2022/08/14 00:52:59;;;;;;;3.20;3.00;;;;;27.10;100172.00;;;;2087582;28;20399;-53
2022/08/14 00:54:01;;;;;;;3.20;3.00;;;;;27.20;100137.00;;;;2088121;28;20255;-53
2022/08/14 00:55:04;;;;;;;3.60;3.30;;;;;27.20;100137.00;;;;2087445;28;20307;-52
2022/08/14 00:56:06;;;;;;;3.20;3.00;;;;;27.20;100136.00;;;;2087298;28;20455;-53
2022/08/14 00:57:07;;;;;;;3.87;3.57;;;;;27.10;100136.00;;;;2088006;28;20455;-52
2022/08/14 00:59:27;;;;;;;4.10;3.80;;;;;27.10;100127.00;;;;2087736;28;20208;-53
2022/08/14 01:00:27;;;;;;;3.20;3.00;;;;;27.10;100128.00;;;;2087231;28;20440;-52
2022/08/14 01:01:28;;;;;;;3.30;3.10;;;;;27.20;100133.00;;;;2087401;28;20517;-53
2022/08/14 01:02:28;;;;;;;3.60;3.30;;;;;27.10;100130.00;;;;2087252;28;20220;-53
2022/08/14 01:03:29;;;;;;;4.03;3.73;;;;;27.20;100128.00;;;;2087197;28;20467;-53
2022/08/14 01:04:32;;;;;;;3.60;3.30;;;;;27.10;100130.00;;;;2087892;28;20216;-53
2022/08/14 01:05:33;;;;;;;3.70;3.40;;;;;27.10;100120.00;;;;2086897;28;20721;-53
2022/08/14 01:06:33;;;;;;;3.33;3.13;;;;;27.10;100128.00;;;;2079035;28;20480;-52
2022/08/14 01:07:34;;;;;;;3.20;3.00;;;;;27.10;100121.00;;;;2086479;28;20902;-53
2022/08/14 01:08:36;;;;;;;3.50;3.30;;;;;27.10;100113.00;;;;2087863;28;20282;-52
2022/08/14 01:09:36;;;;;;;3.67;3.37;;;;;27.10;100109.00;;;;2087136;28;20274;-52
2022/08/14 01:10:52;;;;;;;3.40;3.20;;;;;27.10;100119.00;;;;2087404;28;20839;-53
2022/08/14 01:11:52;;;;;;;3.47;3.27;;;;;27.10;100124.00;;;;2087219;28;20217;-53
2022/08/14 01:12:53;;;;;;;3.47;3.27;;;;;27.10;100077.00;;;;2087137;28;20460;-52
2022/08/14 01:14:00;;;;;;;3.93;3.63;;;;;27.10;100116.00;;;;2087280;28;20720;-53
2022/08/14 01:15:00;;;;;;;3.70;3.47;;;;;27.10;100117.00;;;;2087349;28;20239;-53
2022/08/14 01:16:03;;;;;;;3.40;3.20;;;;;27.10;100117.00;;;;2088065;28;20531;-53
2022/08/14 01:17:03;;;;;;;3.33;3.13;;;;;27.10;100111.00;;;;2087939;28;20570;-54
2022/08/14 01:21:08;;;;;;;3.57;3.37;;;;;27.10;100111.00;;;;2079204;28;20822;-54
2022/08/14 01:22:12;;;;;;;3.40;3.10;;;;;27.10;100109.00;;;;2085915;28;20443;-52
2022/08/14 01:23:13;;;;;;;3.43;3.23;;;;;27.10;100111.00;;;;2087282;28;20463;-52
2022/08/14 01:24:14;;;;;;;3.37;3.17;;;;;27.10;100091.00;;;;2087857;28;20480;-52
2022/08/14 01:25:14;;;;;;;3.97;3.67;;;;;27.10;100110.00;;;;2087929;28;20646;-52
2022/08/14 01:26:19;;;;;;;3.90;3.70;;;;;27.10;100108.00;;;;2087866;28;20983;-53
2022/08/14 01:27:20;;;;;;;3.00;2.80;;;;;27.10;100109.00;;;;2085877;28;20212;-54
2022/08/14 01:28:21;;;;;;;3.63;3.43;;;;;27.10;100109.00;;;;2087671;28;20472;-53
2022/08/14 01:29:21;;;;;;;3.33;3.13;;;;;27.10;100104.00;;;;2087892;28;20493;-53
2022/08/14 01:30:22;;;;;;;3.60;3.40;;;;;27.10;100108.00;;;;2086566;28;20697;-53
2022/08/14 01:31:25;;;;;;;3.70;3.40;;;;;27.10;100105.00;;;;2079014;28;20213;-53
2022/08/14 01:32:26;;;;;;;3.83;3.53;;;;;27.10;100098.00;;;;2078925;28;20821;-53
2022/08/14 01:33:30;;;;;;;3.73;3.43;;;;;27.10;100110.00;;;;2078778;28;20965;-52
2022/08/14 01:34:31;;;;;;;3.60;3.40;;;;;27.10;100113.00;;;;2078951;28;20468;-53
2022/08/14 01:35:32;;;;;;;4.03;3.73;;;;;27.10;100109.00;;;;2079529;28;20957;-53
2022/08/14 01:36:36;;;;;;;3.43;3.17;;;;;27.10;100117.00;;;;2078900;28;20456;-53
2022/08/14 01:37:37;;;;;;;4.10;3.77;;;;;27.10;100111.00;;;;2077638;28;20617;-52
2022/08/14 01:38:38;;;;;;;4.20;3.90;;;;;27.10;100108.00;;;;2078406;28;20484;-53
2022/08/14 01:39:39;;;;;;;4.40;4.10;;;;;27.10;100069.00;;;;2079532;28;20658;-52
2022/08/14 01:40:39;;;;;;;3.70;3.50;;;;;27.10;100102.00;;;;2078791;28;20460;-52
2022/08/14 01:41:41;;;;;;;3.50;3.30;;;;;27.10;100098.00;;;;2078805;28;20232;-52
2022/08/14 01:42:42;;;;;;;3.63;3.33;;;;;27.10;100101.00;;;;2079514;28;20217;-53
2022/08/14 01:43:50;;;;;;;4.40;4.00;;;;;27.10;100090.00;;;;2079396;28;20551;-53
2022/08/14 01:44:51;;;;;;;3.70;3.50;;;;;27.10;100085.00;;;;2084184;28;20300;-52
2022/08/14 01:45:52;;;;;;;3.70;3.40;;;;;27.10;100092.00;;;;2081911;28;20982;-54
2022/08/14 01:46:54;;;;;;;3.80;3.60;;;;;27.10;100098.00;;;;2079720;28;20460;-53
2022/08/14 01:47:55;;;;;;;3.90;3.67;;;;;27.10;100088.00;;;;2077792;28;20918;-53
2022/08/14 01:48:56;;;;;;;3.90;3.63;;;;;27.10;100089.00;;;;2078843;28;20530;-53
2022/08/14 01:49:56;;;;;;;3.83;3.53;;;;;27.10;100087.00;;;;2078801;28;20869;-53
2022/08/14 01:51:00;;;;;;;4.20;3.80;;;;;27.10;100080.00;;;;2079580;28;20692;-53
2022/08/14 01:52:00;;;;;;;4.20;3.90;;;;;27.10;100080.00;;;;2079633;28;20223;-53
2022/08/14 01:53:01;;;;;;;3.60;3.40;;;;;27.10;100081.00;;;;2079528;28;20468;-53
2022/08/14 01:54:04;;;;;;;3.70;3.50;;;;;27.10;100078.00;;;;2081825;28;20678;-53
2022/08/14 01:55:07;;;;;;;3.67;3.47;;;;;27.10;100080.00;;;;2087291;28;20213;-53
2022/08/14 01:56:08;;;;;;;4.10;3.80;;;;;27.10;100075.00;;;;2087779;28;20547;-53
2022/08/14 01:57:10;;;;;;;3.83;3.53;;;;;27.10;100068.00;;;;2087087;28;20451;-54
2022/08/14 01:58:14;;;;;;;4.00;3.70;;;;;27.10;100077.00;;;;2086080;28;20599;-54
2022/08/14 01:59:14;;;;;;;4.00;3.70;;;;;27.10;100069.00;;;;2087481;28;20444;-53
2022/08/14 02:00:17;;;;;;;3.70;3.50;;;;;27.10;100067.00;;;;2087508;28;20448;-53
2022/08/14 02:01:18;;;;;;;3.90;3.60;;;;;27.10;100062.00;;;;2087589;28;20217;-53
2022/08/14 02:02:19;;;;;;;4.00;3.70;;;;;27.10;100069.00;;;;2086817;28;20455;-53
2022/08/14 02:03:19;;;;;;;3.87;3.60;;;;;27.10;100066.00;;;;2086927;28;20217;-54
2022/08/14 02:04:20;;;;;;;3.90;3.60;;;;;27.10;100066.00;;;;2086334;28;20213;-53
2022/08/14 02:05:22;;;;;;;3.70;3.50;;;;;27.10;100070.00;;;;2087542;28;20688;-53
2022/08/14 02:06:25;;;;;;;4.00;3.70;;;;;27.10;100062.00;;;;2086715;28;20443;-53
2022/08/14 02:07:25;;;;;;;3.77;3.47;;;;;27.10;100062.00;;;;2085652;28;20513;-53
2022/08/14 02:08:28;;;;;;;4.03;3.73;;;;;27.10;100047.00;;;;2087057;28;20910;-53
2022/08/14 02:09:34;;;;;;;4.00;3.70;;;;;27.10;100059.00;;;;2087529;28;20649;-54
2022/08/14 02:10:34;;;;;;;3.73;3.43;;;;;27.10;100053.00;;;;2086632;28;20474;-53
2022/08/14 02:11:35;;;;;;;3.53;3.23;;;;;27.10;100045.00;;;;2086789;28;20498;-53
2022/08/14 02:12:36;;;;;;;4.20;3.90;;;;;27.10;100051.00;;;;2087683;28;20294;-53
2022/08/14 02:13:37;;;;;;;4.00;3.70;;;;;27.10;100042.00;;;;2087444;28;21172;-54
2022/08/14 02:14:39;;;;;;;4.30;4.00;;;;;27.10;100045.00;;;;2087487;28;20221;-53
2022/08/14 02:15:39;;;;;;;3.93;3.63;;;;;27.10;100041.00;;;;2087379;28;20501;-54
2022/08/14 02:16:42;;;;;;;3.83;3.53;;;;;27.10;100042.00;;;;2087476;28;20495;-53
2022/08/14 02:17:42;;;;;;;3.67;3.47;;;;;27.10;100033.00;;;;2086720;28;20833;-53
2022/08/14 02:18:42;;;;;;;4.07;3.77;;;;;27.10;100040.00;;;;2086775;28;20532;-53
2022/08/14 02:19:43;;;;;;;3.67;3.43;;;;;27.10;100029.00;;;;2086862;28;20877;-53
2022/08/14 02:20:44;;;;;;;4.63;4.27;;;;;27.10;100026.00;;;;2087106;28;20224;-52
2022/08/14 02:21:45;;;;;;;4.20;3.90;;;;;27.10;100033.00;;;;2087310;28;20245;-54
2022/08/14 02:22:45;;;;;;;3.87;3.67;;;;;27.10;100016.00;;;;2087430;28;20235;-53
2022/08/14 02:23:46;;;;;;;3.90;3.60;;;;;27.10;100030.00;;;;2087285;28;20617;-53
2022/08/14 02:24:47;;;;;;;4.13;3.83;;;;;27.10;100032.00;;;;2087512;28;20224;-53
2022/08/14 02:25:47;;;;;;;4.30;4.00;;;;;27.10;100025.00;;;;2087250;28;20458;-53
2022/08/14 02:26:48;;;;;;;4.37;4.07;;;;;27.10;100035.00;;;;2087385;28;20213;-53
2022/08/14 02:27:48;;;;;;;3.87;3.67;;;;;27.10;100030.00;;;;2086633;28;20634;-53
2022/08/14 02:28:50;;;;;;;3.90;3.60;;;;;27.10;100030.00;;;;2087654;28;20460;-53
2022/08/14 02:29:53;;;;;;;4.90;4.07;;;;;27.10;100015.00;;;;2087244;28;20424;-52
2022/08/14 02:30:55;;;;;;;4.30;4.00;;;;;27.10;99975.00;;;;2087272;28;21137;-53
2022/08/14 02:31:57;;;;;;;4.47;4.10;;;;;27.10;100031.00;;;;2086361;28;20443;-53
2022/08/14 02:32:57;;;;;;;4.10;3.80;;;;;27.10;100028.00;;;;2085173;28;20522;-57
2022/08/14 02:33:58;;;;;;;4.10;3.80;;;;;27.10;100043.00;;;;2081962;28;20439;-55
2022/08/14 02:34:59;;;;;;;3.57;3.33;;;;;27.10;100030.00;;;;2087267;28;20242;-54
2022/08/14 02:36:02;;;;;;;4.30;4.00;;;;;27.10;100022.00;;;;2087138;28;21017;-53
2022/08/14 02:37:04;;;;;;;4.50;4.20;;;;;27.10;100022.00;;;;2086612;28;20224;-53
2022/08/14 02:38:04;;;;;;;3.90;3.60;;;;;27.10;100089.00;;;;2082850;28;20610;-53
2022/08/14 02:39:08;;;;;;;3.90;3.60;;;;;27.10;100025.00;;;;2079221;28;20965;-53
2022/08/14 02:40:09;;;;;;;3.83;3.53;;;;;27.10;100029.00;;;;2078856;28;20778;-53
2022/08/14 02:41:10;;;;;;;4.37;4.07;;;;;27.10;100016.00;;;;2078520;28;20464;-52
2022/08/14 02:42:12;;;;;;;3.90;3.60;;;;;27.10;100022.00;;;;2078502;28;20233;-53
2022/08/14 02:43:13;;;;;;;3.90;3.60;;;;;27.10;100020.00;;;;2079009;28;20479;-53
2022/08/14 02:44:13;;;;;;;3.90;3.60;;;;;27.10;100029.00;;;;2078999;28;20867;-53
2022/08/14 02:45:14;;;;;;;4.33;4.03;;;;;27.10;100028.00;;;;2079224;28;20209;-53
2022/08/14 02:46:15;;;;;;;4.33;4.03;;;;;27.10;100018.00;;;;2079193;28;20240;-53
2022/08/14 02:47:16;;;;;;;4.63;4.33;;;;;27.10;100025.00;;;;2085378;28;20586;-53
2022/08/14 02:48:17;;;;;;;3.70;3.50;;;;;27.10;100020.00;;;;2085984;28;20439;-53
2022/08/14 02:49:17;;;;;;;3.90;3.60;;;;;27.10;100028.00;;;;2085924;28;20551;-52
2022/08/14 02:50:18;;;;;;;3.80;3.50;;;;;27.10;100023.00;;;;2086371;28;20300;-53
2022/08/14 02:51:19;;;;;;;3.93;3.63;;;;;27.10;100017.00;;;;2086544;28;20644;-52
2022/08/14 02:52:19;;;;;;;4.20;3.90;;;;;27.10;100028.00;;;;2087231;28;20550;-54
2022/08/14 02:53:19;;;;;;;4.20;3.90;;;;;27.10;100024.00;;;;2087031;28;20235;-54
2022/08/14 02:54:21;;;;;;;3.57;3.37;;;;;27.10;100033.00;;;;2086195;28;20232;-53
2022/08/14 02:55:22;;;;;;;4.17;3.87;;;;;27.10;100021.00;;;;2086567;28;20220;-53
2022/08/14 02:56:24;;;;;;;4.50;4.20;;;;;27.10;100021.00;;;;2086959;28;20841;-53
2022/08/14 02:57:26;;;;;;;3.90;3.60;;;;;27.10;99992.00;;;;2086158;28;20676;-53
2022/08/14 02:58:26;;;;;;;4.07;3.77;;;;;27.10;100011.00;;;;2086476;28;20539;-53
2022/08/14 02:59:30;;;;;;;3.47;3.27;;;;;27.10;100020.00;;;;2086135;28;20455;-53
2022/08/14 03:00:34;;;;;;;4.20;3.90;;;;;27.10;100026.00;;;;2078516;28;20301;-53
2022/08/14 03:01:34;;;;;;;4.50;4.20;;;;;27.10;100020.00;;;;2086162;28;20460;-54
2022/08/14 03:02:34;;;;;;;4.10;3.80;;;;;27.10;100021.00;;;;2086882;28;20459;-54
2022/08/14 03:03:35;;;;;;;3.63;3.43;;;;;27.10;100022.00;;;;2086903;28;20232;-53
2022/08/14 03:04:36;;;;;;;4.10;3.80;;;;;27.10;100025.00;;;;2086619;28;20677;-53
2022/08/14 03:05:38;;;;;;;4.00;3.80;;;;;27.10;100032.00;;;;2086751;28;20456;-53
2022/08/14 03:06:42;;;;;;;4.40;4.10;;;;;27.10;99835.00;;;;2087154;28;20632;-53
2022/08/14 03:07:43;;;;;;;3.50;3.30;;;;;27.10;100024.00;;;;2085524;28;20558;-53
2022/08/14 03:08:43;;;;;;;3.93;3.63;;;;;27.10;100021.00;;;;2086211;28;20834;-53
2022/08/14 03:09:44;;;;;;;3.90;3.60;;;;;27.10;100026.00;;;;2087024;28;20466;-53
2022/08/14 03:10:45;;;;;;;4.07;3.70;;;;;27.10;100027.00;;;;2086817;28;20240;-53
2022/08/14 03:11:45;;;;;;;3.97;3.77;;;;;27.10;100029.00;;;;2087142;28;20216;-53
2022/08/14 03:12:45;;;;;;;3.93;3.63;;;;;27.10;100031.00;;;;2086791;28;20245;-53
2022/08/14 03:13:50;;;;;;;3.70;3.50;;;;;27.10;100024.00;;;;2084704;28;20735;-53
2022/08/14 03:14:51;;;;;;;4.43;4.13;;;;;27.10;100030.00;;;;2078289;28;20232;-53
2022/08/14 03:15:52;;;;;;;4.47;4.17;;;;;27.10;100029.00;;;;2078721;28;20908;-53
2022/08/14 03:16:53;;;;;;;4.03;3.73;;;;;27.10;100025.00;;;;2078719;28;20456;-53
2022/08/14 03:17:53;;;;;;;4.17;3.87;;;;;27.10;100033.00;;;;2077783;28;20460;-53
2022/08/14 03:18:55;;;;;;;3.77;3.53;;;;;27.10;100024.00;;;;2078642;28;20296;-53
2022/08/14 03:19:55;;;;;;;4.10;3.80;;;;;27.10;100022.00;;;;2078028;28;20213;-53
2022/08/14 03:20:57;;;;;;;4.40;4.10;;;;;27.10;100024.00;;;;2078078;28;20960;-53
2022/08/14 03:21:57;;;;;;;4.70;4.40;;;;;27.10;100025.00;;;;2078852;28;20217;-53
2022/08/14 03:22:59;;;;;;;4.13;3.83;;;;;27.10;100024.00;;;;2078783;28;20448;-53
2022/08/14 03:24:11;;;;;;;4.00;3.70;;;;;27.10;100025.00;;;;2078664;28;20220;-53
2022/08/14 03:25:11;;;;;;;4.10;3.80;;;;;27.10;100024.00;;;;2078651;28;20992;-54
2022/08/14 03:26:16;;;;;;;4.50;4.20;;;;;27.10;100029.00;;;;2078726;28;20467;-53
2022/08/14 03:27:18;;;;;;;4.50;4.07;;;;;27.10;100028.00;;;;2077981;28;20225;-53
2022/08/14 03:28:18;;;;;;;4.40;4.10;;;;;27.10;100031.00;;;;2078118;28;20526;-54
2022/08/14 03:29:19;;;;;;;4.10;3.80;;;;;27.00;100024.00;;;;2078645;28;20215;-54
2022/08/14 03:30:19;;;;;;;3.63;3.43;;;;;27.10;100023.00;;;;2078452;28;20213;-53
2022/08/14 03:31:22;;;;;;;4.47;4.17;;;;;27.10;100033.00;;;;2077412;28;20467;-53
2022/08/14 03:32:23;;;;;;;3.97;3.67;;;;;27.00;100030.00;;;;2078720;28;20216;-53
2022/08/14 03:33:23;;;;;;;4.33;4.03;;;;;27.00;100023.00;;;;2078556;28;20457;-53
2022/08/14 03:34:24;;;;;;;4.73;4.33;;;;;27.00;100030.00;;;;2078766;28;20463;-53
2022/08/14 03:35:25;;;;;;;4.47;4.17;;;;;27.10;100029.00;;;;2078707;28;20725;-53
2022/08/14 03:36:26;;;;;;;3.97;3.70;;;;;27.10;100034.00;;;;2078158;28;20526;-53
2022/08/14 03:37:26;;;;;;;4.27;3.97;;;;;27.10;100030.00;;;;2077603;28;20229;-53
2022/08/14 03:38:26;;;;;;;4.70;4.40;;;;;27.10;100023.00;;;;2077929;28;20229;-53
2022/08/14 03:39:27;;;;;;;3.90;3.60;;;;;27.00;100028.00;;;;2078105;28;20226;-53
2022/08/14 03:40:27;;;;;;;4.20;3.90;;;;;27.10;100033.00;;;;2082414;28;20228;-53
2022/08/14 03:41:27;;;;;;;4.00;3.70;;;;;27.00;100024.00;;;;2086727;28;20267;-53
2022/08/14 03:42:28;;;;;;;4.50;4.20;;;;;27.00;100028.00;;;;2083950;28;20228;-54
2022/08/14 03:43:28;;;;;;;4.47;4.17;;;;;27.10;100032.00;;;;2077467;28;20221;-53
2022/08/14 03:44:28;;;;;;;4.23;3.93;;;;;27.00;100041.00;;;;2077515;28;20223;-53
2022/08/14 03:45:29;;;;;;;4.13;3.83;;;;;27.00;100025.00;;;;2078372;28;20213;-52
2022/08/14 03:46:32;;;;;;;4.37;4.07;;;;;27.10;100025.00;;;;2078502;28;20224;-53
2022/08/14 03:47:35;;;;;;;4.30;4.00;;;;;27.00;100021.00;;;;2077093;28;20222;-54
2022/08/14 03:48:38;;;;;;;4.27;3.97;;;;;27.00;100024.00;;;;2078325;28;21108;-53
2022/08/14 03:49:39;;;;;;;4.10;3.80;;;;;27.00;100023.00;;;;2082602;28;20494;-53
2022/08/14 03:50:43;;;;;;;4.53;4.23;;;;;27.00;100027.00;;;;2085695;28;20455;-53
2022/08/14 03:51:44;;;;;;;4.47;4.10;;;;;27.00;100025.00;;;;2086233;28;20722;-53
2022/08/14 03:52:44;;;;;;;3.83;3.63;;;;;27.00;100018.00;;;;2086344;28;20567;-52
2022/08/14 03:53:45;;;;;;;4.23;3.93;;;;;27.00;100032.00;;;;2086399;28;20482;-53
2022/08/14 03:54:45;;;;;;;4.43;4.13;;;;;27.00;100022.00;;;;2086307;28;20327;-53
2022/08/14 03:55:46;;;;;;;4.60;4.30;;;;;27.00;100021.00;;;;2086375;28;20266;-53
2022/08/14 03:56:46;;;;;;;3.93;3.63;;;;;27.00;100017.00;;;;2086666;28;20243;-53
2022/08/14 03:57:47;;;;;;;4.30;4.00;;;;;27.00;100018.00;;;;2085669;28;20219;-53
2022/08/14 03:58:49;;;;;;;4.50;4.20;;;;;27.00;100015.00;;;;2082727;28;20321;-53
2022/08/14 03:59:49;;;;;;;4.30;4.00;;;;;27.00;100021.00;;;;2072730;28;20884;-53
2022/08/14 04:00:49;;;;;;;4.57;4.27;;;;;27.00;100019.00;;;;2078011;28;20440;-53
2022/08/14 04:01:51;;;;;;;4.60;4.30;;;;;27.00;100017.00;;;;2079967;28;20779;-53
2022/08/14 04:02:51;;;;;;;4.30;4.00;;;;;27.00;100020.00;;;;2080347;28;20209;-53
2022/08/14 04:03:53;;;;;;;4.53;4.23;;;;;27.00;100018.00;;;;2080336;28;20543;-53
2022/08/14 04:04:53;;;;;;;4.27;3.97;;;;;27.00;100012.00;;;;2080211;28;20232;-53
2022/08/14 04:05:54;;;;;;;3.90;3.60;;;;;27.00;100013.00;;;;2085889;28;20451;-53
2022/08/14 04:06:54;;;;;;;4.50;4.20;;;;;27.00;100018.00;;;;2081961;28;20224;-53
2022/08/14 04:07:54;;;;;;;4.50;4.20;;;;;27.00;100008.00;;;;2079133;28;20304;-53
2022/08/14 04:08:55;;;;;;;4.27;3.97;;;;;27.00;100011.00;;;;2087299;28;20212;-53
2022/08/14 04:09:55;;;;;;;4.80;4.50;;;;;27.00;100009.00;;;;2087393;28;20220;-54
2022/08/14 04:10:58;;;;;;;4.37;4.07;;;;;27.00;100004.00;;;;2087049;28;20236;-53
2022/08/14 04:11:59;;;;;;;4.30;3.97;;;;;27.00;100014.00;;;;2087923;28;20208;-53
2022/08/14 04:13:00;;;;;;;4.67;4.30;;;;;27.00;100008.00;;;;2087998;28;20851;-53
2022/08/14 04:14:01;;;;;;;4.63;4.33;;;;;27.00;100012.00;;;;2087936;28;20220;-52
2022/08/14 04:15:01;;;;;;;4.40;4.10;;;;;27.00;100015.00;;;;2084554;28;20468;-52
2022/08/14 04:16:03;;;;;;;4.37;4.03;;;;;27.00;100016.00;;;;2075514;28;20321;-53
2022/08/14 04:17:03;;;;;;;4.40;4.10;;;;;27.00;100012.00;;;;2080011;28;20228;-53
2022/08/14 04:18:07;;;;;;;4.30;4.00;;;;;27.00;100012.00;;;;2079094;28;20464;-53
2022/08/14 04:19:08;;;;;;;4.50;4.20;;;;;27.00;100015.00;;;;2083148;28;20212;-53
2022/08/14 04:20:09;;;;;;;4.90;4.60;;;;;27.00;100010.00;;;;2087922;28;20466;-53
2022/08/14 04:21:10;;;;;;;4.60;4.30;;;;;27.00;100011.00;;;;2080347;28;21250;-53
2022/08/14 04:22:12;;;;;;;4.83;4.43;;;;;27.00;100016.00;;;;2079355;28;20222;-53
2022/08/14 04:23:12;;;;;;;4.53;4.23;;;;;27.00;99995.00;;;;2079593;28;20483;-53
2022/08/14 04:24:13;;;;;;;4.53;4.20;;;;;27.00;99992.00;;;;2079163;28;20821;-53
2022/08/14 04:25:13;;;;;;;4.57;4.27;;;;;27.00;100005.00;;;;2084561;28;20572;-56
2022/08/14 04:26:14;;;;;;;4.63;4.33;;;;;27.00;100003.00;;;;2088042;28;20224;-55
2022/08/14 04:27:14;;;;;;;4.70;4.37;;;;;27.00;100001.00;;;;2086301;28;20228;-54
2022/08/14 04:28:14;;;;;;;4.27;3.97;;;;;27.00;100015.00;;;;2086537;28;20251;-53
2022/08/14 04:29:15;;;;;;;4.87;4.47;;;;;27.00;100005.00;;;;2087773;28;20213;-54
2022/08/14 04:30:15;;;;;;;4.37;4.07;;;;;27.00;100001.00;;;;2088034;28;20222;-52
2022/08/14 04:31:19;;;;;;;4.73;4.40;;;;;27.00;100003.00;;;;2087850;28;20220;-53
2022/08/14 04:32:22;;;;;;;4.83;4.50;;;;;27.00;100000.00;;;;2087444;28;20200;-53
2022/08/14 04:33:23;;;;;;;4.47;4.17;;;;;27.00;100005.00;;;;2087194;28;20486;-53
2022/08/14 04:34:23;;;;;;;4.70;4.40;;;;;27.00;100003.00;;;;2087699;28;20447;-53
2022/08/14 04:35:24;;;;;;;4.93;4.60;;;;;27.00;100010.00;;;;2087852;28;20518;-53
2022/08/14 04:36:24;;;;;;;4.60;4.30;;;;;27.00;100002.00;;;;2087060;28;20311;-53
2022/08/14 04:43:59;;;;;;;4.60;4.30;;;;;27.00;99996.00;;;;2079551;28;20483;-52
2022/08/14 04:44:59;;;;;;;4.70;4.40;;;;;27.00;100009.00;;;;2079480;28;20452;-53
2022/08/14 04:46:01;;;;;;;4.57;4.27;;;;;27.00;99995.00;;;;2076055;28;20217;-52
2022/08/14 04:48:21;;;;;;;4.90;4.50;;;;;27.00;100017.00;;;;2085970;28;20447;-53
2022/08/14 04:49:21;;;;;;;4.10;3.80;;;;;27.00;99996.00;;;;2088007;28;20975;-52
2022/08/14 04:50:22;;;;;;;4.87;4.50;;;;;27.00;100000.00;;;;2088220;28;20482;-53
2022/08/14 04:51:26;;;;;;;4.40;4.10;;;;;27.00;99995.00;;;;2088028;28;20217;-52
2022/08/14 04:52:27;;;;;;;4.63;4.33;;;;;27.00;99992.00;;;;2088243;28;20213;-52
2022/08/14 04:53:28;;;;;;;4.53;4.23;;;;;27.00;99987.00;;;;2087807;28;20964;-53
2022/08/14 04:54:28;;;;;;;4.90;4.50;;;;;27.00;99992.00;;;;2086912;28;20213;-53
2022/08/14 04:55:28;;;;;;;5.17;4.77;;;;;27.00;99981.00;;;;2087992;28;20270;-53
2022/08/14 04:56:29;;;;;;;4.67;4.37;;;;;27.00;99984.00;;;;2088133;28;20697;-53
2022/08/14 04:57:30;;;;;;;4.50;4.20;;;;;27.00;99978.00;;;;2087108;28;20212;-53
2022/08/14 04:58:31;;;;;;;4.63;4.33;;;;;27.00;99985.00;;;;2088187;28;20216;-53
2022/08/14 04:59:32;;;;;;;5.00;4.67;;;;;27.00;99980.00;;;;2087475;28;20483;-53
2022/08/14 05:00:33;;;;;;;4.40;4.10;;;;;27.00;99979.00;;;;2080175;28;20567;-53
2022/08/14 05:01:33;;;;;;;4.40;4.10;;;;;27.00;99984.00;;;;2087785;28;20629;-52
2022/08/14 05:02:34;;;;;;;5.00;4.60;;;;;27.00;99983.00;;;;2087994;28;20213;-53
2022/08/14 05:03:35;;;;;;;4.80;4.50;;;;;27.00;99986.00;;;;2087808;28;20224;-53
2022/08/14 05:04:35;;;;;;;4.80;4.50;;;;;27.00;99987.00;;;;2088080;28;20459;-53
2022/08/14 05:05:36;;;;;;;4.70;4.40;;;;;27.00;99985.00;;;;2088380;28;20479;-52
2022/08/14 05:06:37;;;;;;;4.47;4.07;;;;;27.00;99981.00;;;;2088041;28;20213;-52
2022/08/14 05:07:38;;;;;;;4.70;4.40;;;;;27.00;99981.00;;;;2087544;28;20290;-52
2022/08/14 05:08:39;;;;;;;4.93;4.63;;;;;27.00;99985.00;;;;2088072;28;20948;-52
2022/08/14 05:09:39;;;;;;;4.77;4.47;;;;;27.00;99987.00;;;;2087732;28;20456;-52
2022/08/14 05:10:50;;;;;;;4.83;4.53;;;;;27.00;99991.00;;;;2087950;28;20213;-52
2022/08/14 05:11:51;;;;;;;4.33;4.03;;;;;27.00;99996.00;;;;2083962;28;20221;-53
2022/08/14 05:12:52;;;;;;;4.30;4.00;;;;;27.00;99988.00;;;;2078622;28;20537;-53
2022/08/14 05:13:52;;;;;;;4.17;3.87;;;;;27.00;99983.00;;;;2085644;28;20509;-53
2022/08/14 05:14:52;;;;;;;4.80;4.40;;;;;27.00;99984.00;;;;2087840;28;20240;-52